Goodway, Alabama
Current Conditions -  °F | °C
As of 8:53 AM on Friday 19 Dec 2014 (Local Time) from KGZH Reporting Station
Overcast Overcast  
Wind Chill: 51°   Ceiling: 2800
Heat Index: 51°   Visibility: 10mi
Dew Point: 36°   Wind: 3mph
Humidity: 56%   Direction: NA
Pressure: 30.19"   Gusts: NA
Location:  31.34°N, 87.43°W
Report Text: KGZH 191453Z AUTO VRB03KT 10SM OVC028 11/02 A3019 RMK AO2 SLP223 T01060022 50019
Loading
Personal Weather Stations






























Interactive Weather Map New forecast layout! Learn more

10-Day Weather Forecast

Advertisements
Track Severe Weather on mobile